Time;durP1;ratioP1;P1;durP2;ratioP2;P2;SDS_P1;SDS_P2;PMS_P1;PMS_P2;Temp;Humidity;BMP_temperature;BMP_pressure;BME280_temperature;BME280_humidity;BME280_pressure;Samples;Min_cycle;Max_cycle;Signal;HPM_P1;HPM_P2
2021/12/14 00:01:43;;;;;;;;;;;8.60;99.90;;;;;;5063825;28;19925;-87
2021/12/14 00:04:10;;;;;;;;;;;7.90;99.90;;;;;;5063499;28;19925;-87
2021/12/14 00:06:37;;;;;;;;;;;8.00;99.90;;;;;;5062762;28;19925;-88
2021/12/14 00:09:06;;;;;;;;;;;8.00;99.90;;;;;;5061901;28;19962;-87
2021/12/14 00:11:50;;;;;;;;;;;8.00;99.90;;;;;;5062809;28;19967;-88
2021/12/14 00:15:01;;;;;;;;;;;7.90;99.90;;;;;;5059511;28;19975;-88
2021/12/14 00:17:15;;;;;;;;;;;8.00;99.90;;;;;;5057711;28;19936;-86
2021/12/14 00:19:42;;;;;;;;;;;7.90;99.90;;;;;;5057389;28;20292;-86
2021/12/14 00:22:20;;;;;;;;;;;7.90;99.90;;;;;;5066719;28;19928;-85
2021/12/14 00:24:45;;;;;;;;;;;7.90;99.90;;;;;;5064050;28;20287;-87
2021/12/14 00:27:12;;;;;;;;;;;8.20;99.90;;;;;;5072791;28;19960;-87
2021/12/14 00:29:42;;;;;;;;;;;7.80;99.90;;;;;;5075174;28;19932;-87
2021/12/14 00:32:13;;;;;;;;;;;7.90;99.90;;;;;;5076699;28;19955;-87
2021/12/14 00:34:42;;;;;;;;;;;7.90;99.90;;;;;;5076706;28;19932;-86
2021/12/14 00:37:09;;;;;;;;;;;7.90;99.90;;;;;;5073376;28;19951;-86
2021/12/14 00:39:36;;;;;;;;;;;7.80;99.90;;;;;;5075168;28;19932;-86
2021/12/14 00:42:03;;;;;;;;;;;8.20;99.90;;;;;;5070481;28;19936;-88
2021/12/14 00:44:29;;;;;;;;;;;7.90;99.90;;;;;;5069603;28;19925;-87
2021/12/14 00:46:57;;;;;;;;;;;7.70;99.90;;;;;;5066037;28;19968;-88
2021/12/14 00:49:24;;;;;;;;;;;8.30;99.90;;;;;;5069975;28;20011;-86
2021/12/14 00:51:51;;;;;;;;;;;8.60;99.90;;;;;;5073656;28;19932;-87
2021/12/14 00:54:18;;;;;;;;;;;8.00;99.90;;;;;;5073707;28;20040;-87
2021/12/14 00:56:46;;;;;;;;;;;7.90;99.90;;;;;;5074512;28;19932;-87
2021/12/14 00:59:13;;;;;;;;;;;7.80;99.90;;;;;;5070058;28;19928;-87
2021/12/14 01:01:41;;;;;;;;;;;7.80;99.90;;;;;;5067619;28;19925;-87
2021/12/14 01:04:14;;;;;;;;;;;7.80;99.90;;;;;;5065000;28;19925;-87
2021/12/14 01:06:45;;;;;;;;;;;7.40;99.90;;;;;;5071512;28;19947;-88
2021/12/14 01:09:12;;;;;;;;;;;7.80;99.90;;;;;;5071265;28;19951;-86
2021/12/14 01:11:43;;;;;;;;;;;7.70;99.90;;;;;;5065471;28;19924;-86
2021/12/14 01:14:11;;;;;;;;;;;6.80;99.90;;;;;;5063936;28;19925;-87
2021/12/14 01:16:50;;;;;;;;;;;7.80;99.90;;;;;;5070850;28;19913;-84
2021/12/14 01:19:24;;;;;;;;;;;6.80;99.90;;;;;;5081401;28;19925;-85
2021/12/14 01:22:14;;;;;;;;;;;7.90;99.90;;;;;;5074522;28;19925;-87
2021/12/14 01:25:01;;;;;;;;;;;8.10;99.90;;;;;;5063512;28;19932;-87
2021/12/14 01:27:32;;;;;;;;;;;7.80;99.90;;;;;;5062704;28;20024;-87
2021/12/14 01:30:02;;;;;;;;;;;8.50;99.90;;;;;;5062147;28;19924;-87
2021/12/14 01:32:31;;;;;;;;;;;6.70;99.90;;;;;;5063879;28;19925;-87
2021/12/14 01:34:59;;;;;;;;;;;7.60;99.90;;;;;;5067836;28;19925;-87
2021/12/14 01:37:29;;;;;;;;;;;7.80;99.90;;;;;;5063694;28;19976;-85
2021/12/14 01:40:05;;;;;;;;;;;7.80;99.90;;;;;;5058193;28;19949;-86
2021/12/14 01:42:33;;;;;;;;;;;7.40;99.90;;;;;;5058769;28;19951;-86
2021/12/14 01:45:02;;;;;;;;;;;7.80;99.90;;;;;;5059328;28;19947;-86
2021/12/14 01:47:30;;;;;;;;;;;7.80;99.90;;;;;;5059854;28;19932;-87
2021/12/14 01:49:56;;;;;;;;;;;7.80;99.90;;;;;;5079643;28;19913;-84
2021/12/14 01:52:26;;;;;;;;;;;6.60;99.90;;;;;;5080017;28;19913;-84
2021/12/14 01:54:54;;;;;;;;;;;7.90;99.90;;;;;;5080538;28;19924;-84
2021/12/14 01:57:22;;;;;;;;;;;7.20;99.90;;;;;;5080707;28;19952;-83
2021/12/14 01:59:54;;;;;;;;;;;7.80;99.90;;;;;;5080717;28;19916;-84
2021/12/14 02:02:30;;;;;;;;;;;7.70;99.90;;;;;;5080581;28;19912;-84
2021/12/14 02:04:57;;;;;;;;;;;7.70;99.90;;;;;;5079451;28;19964;-85
2021/12/14 02:07:27;;;;;;;;;;;6.50;99.90;;;;;;5073953;28;19939;-85
2021/12/14 02:09:55;;;;;;;;;;;7.80;99.90;;;;;;5071693;28;19929;-85
2021/12/14 02:12:23;;;;;;;;;;;7.70;99.90;;;;;;5068393;28;19925;-87
2021/12/14 02:14:50;;;;;;;;;;;7.70;99.90;;;;;;5065806;28;19939;-88
2021/12/14 02:17:18;;;;;;;;;;;7.00;99.90;;;;;;5064400;28;19924;-87
2021/12/14 02:19:45;;;;;;;;;;;7.70;99.90;;;;;;5064105;28;19925;-86
2021/12/14 02:22:14;;;;;;;;;;;7.80;99.90;;;;;;5066173;28;19947;-87
2021/12/14 02:24:43;;;;;;;;;;;7.70;99.90;;;;;;5071623;28;19925;-86
2021/12/14 02:27:10;;;;;;;;;;;7.70;99.90;;;;;;5068447;28;19924;-85
2021/12/14 02:29:37;;;;;;;;;;;8.00;99.90;;;;;;5061856;28;19979;-85
2021/12/14 02:32:05;;;;;;;;;;;6.90;99.90;;;;;;5075836;28;19940;-84
2021/12/14 02:34:37;;;;;;;;;;;7.70;99.90;;;;;;5079579;28;19931;-84
2021/12/14 02:37:03;;;;;;;;;;;7.70;99.90;;;;;;5095324;22;19925;-80
2021/12/14 02:39:47;;;;;;;;;;;7.70;99.90;;;;;;5070504;28;19925;-81
2021/12/14 02:42:15;;;;;;;;;;;7.70;99.90;;;;;;5067492;28;19929;-82
2021/12/14 02:44:46;;;;;;;;;;;7.70;99.90;;;;;;5069381;28;19929;-81
2021/12/14 02:47:15;;;;;;;;;;;8.30;99.90;;;;;;5068786;28;19932;-82
2021/12/14 02:49:41;;;;;;;;;;;7.70;99.90;;;;;;5069165;28;19925;-81
2021/12/14 02:52:10;;;;;;;;;;;7.70;99.90;;;;;;5068499;28;19924;-82
2021/12/14 02:54:39;;;;;;;;;;;7.70;99.90;;;;;;5066568;28;20286;-82
2021/12/14 02:57:08;;;;;;;;;;;7.70;99.90;;;;;;5060523;28;19933;-82
2021/12/14 02:59:36;;;;;;;;;;;7.70;99.90;;;;;;5065956;28;19929;-82
2021/12/14 03:02:08;;;;;;;;;;;7.70;99.90;;;;;;5065071;28;20336;-82
2021/12/14 03:04:38;;;;;;;;;;;7.70;99.90;;;;;;5072137;28;19935;-80
2021/12/14 03:07:04;;;;;;;;;;;7.60;99.90;;;;;;5077936;28;19920;-81
2021/12/14 03:09:39;;;;;;;;;;;7.60;99.90;;;;;;5076921;28;19979;-79
2021/12/14 03:12:09;;;;;;;;;;;6.70;99.90;;;;;;5067412;28;19925;-81
2021/12/14 03:14:36;;;;;;;;;;;7.60;99.90;;;;;;5069002;28;19925;-81
2021/12/14 03:17:03;;;;;;;;;;;7.60;99.90;;;;;;5068339;28;19935;-81
2021/12/14 03:19:29;;;;;;;;;;;7.90;99.90;;;;;;5071837;28;19925;-80
2021/12/14 03:21:56;;;;;;;;;;;7.60;99.90;;;;;;5072764;28;19924;-80
2021/12/14 03:24:23;;;;;;;;;;;7.60;99.90;;;;;;5072447;28;19932;-80
2021/12/14 03:26:52;;;;;;;;;;;7.50;99.90;;;;;;5070084;28;19925;-81
2021/12/14 03:29:21;;;;;;;;;;;9.60;99.90;;;;;;5068504;28;19970;-82
2021/12/14 03:31:50;;;;;;;;;;;6.90;99.90;;;;;;5067528;28;20383;-82
2021/12/14 03:34:18;;;;;;;;;;;6.90;99.90;;;;;;5068423;28;19925;-82
2021/12/14 03:36:45;;;;;;;;;;;7.50;99.90;;;;;;5072548;28;19924;-81
2021/12/14 03:39:13;;;;;;;;;;;6.90;99.90;;;;;;5074348;28;19925;-81
2021/12/14 03:41:41;;;;;;;;;;;7.50;99.90;;;;;;5072471;28;19928;-81
2021/12/14 03:44:09;;;;;;;;;;;6.30;99.90;;;;;;5071507;28;19912;-80
2021/12/14 03:46:38;;;;;;;;;;;6.40;99.90;;;;;;5072309;28;19947;-80
2021/12/14 03:49:06;;;;;;;;;;;6.50;99.90;;;;;;5072629;28;19928;-80
2021/12/14 03:51:32;;;;;;;;;;;8.00;99.90;;;;;;5064797;28;19925;-81
2021/12/14 03:53:59;;;;;;;;;;;7.20;99.90;;;;;;5061520;28;19932;-80
2021/12/14 03:56:26;;;;;;;;;;;7.00;99.90;;;;;;5059572;28;19925;-80
2021/12/14 03:58:55;;;;;;;;;;;7.50;99.90;;;;;;5064709;28;21516;-81
2021/12/14 04:01:24;;;;;;;;;;;6.60;99.90;;;;;;5061082;28;19944;-81
2021/12/14 04:03:55;;;;;;;;;;;7.50;99.90;;;;;;5057325;28;19936;-81
2021/12/14 04:06:21;;;;;;;;;;;7.00;99.90;;;;;;5059829;28;19925;-81
2021/12/14 04:08:48;;;;;;;;;;;6.90;99.90;;;;;;5064705;28;20359;-80
2021/12/14 04:11:15;;;;;;;;;;;6.80;99.90;;;;;;5063307;28;19947;-81
2021/12/14 04:13:43;;;;;;;;;;;7.50;99.90;;;;;;5062141;28;19964;-81
2021/12/14 04:16:11;;;;;;;;;;;7.50;99.90;;;;;;5063221;28;19952;-82
2021/12/14 04:18:37;;;;;;;;;;;6.30;99.90;;;;;;5060845;28;19929;-81
2021/12/14 04:21:06;;;;;;;;;;;7.10;99.90;;;;;;5059907;28;19964;-81
2021/12/14 04:23:34;;;;;;;;;;;7.10;99.90;;;;;;5059761;28;19925;-81
2021/12/14 04:26:01;;;;;;;;;;;7.70;99.90;;;;;;5058848;28;19964;-81
2021/12/14 04:28:30;;;;;;;;;;;6.90;99.90;;;;;;5059648;28;19967;-81
2021/12/14 04:30:56;;;;;;;;;;;6.90;99.90;;;;;;5059058;28;19975;-80
2021/12/14 04:33:24;;;;;;;;;;;7.30;99.90;;;;;;5058511;28;19960;-81
2021/12/14 04:35:50;;;;;;;;;;;6.80;99.90;;;;;;5062365;28;19924;-82
2021/12/14 04:38:23;;;;;;;;;;;6.70;99.90;;;;;;5062636;28;19924;-81
2021/12/14 04:51:59;;;;;;;;;;;7.40;99.90;;;;;;5060945;28;19928;-82
2021/12/14 04:54:27;;;;;;;;;;;6.80;99.90;;;;;;5059408;28;19931;-82
2021/12/14 04:56:54;;;;;;;;;;;7.40;99.90;;;;;;5058895;28;19929;-82
2021/12/14 04:59:23;;;;;;;;;;;7.60;99.90;;;;;;5066161;28;19940;-80
2021/12/14 05:01:50;;;;;;;;;;;7.40;99.90;;;;;;5076497;28;19951;-80
2021/12/14 05:04:18;;;;;;;;;;;6.60;99.90;;;;;;5078247;28;19924;-80
2021/12/14 05:06:48;;;;;;;;;;;7.40;99.90;;;;;;5061794;28;19948;-81
2021/12/14 05:09:21;;;;;;;;;;;7.40;99.90;;;;;;5059273;28;19925;-82
2021/12/14 05:11:50;;;;;;;;;;;6.80;99.90;;;;;;5057734;28;19925;-80
2021/12/14 05:14:16;;;;;;;;;;;6.90;99.90;;;;;;5058213;28;19994;-80
2021/12/14 05:16:43;;;;;;;;;;;6.40;99.90;;;;;;5058734;28;19925;-81
2021/12/14 05:19:11;;;;;;;;;;;7.50;99.90;;;;;;5057900;28;19960;-82
2021/12/14 05:21:39;;;;;;;;;;;6.80;99.90;;;;;;5058877;28;19932;-81
2021/12/14 05:24:07;;;;;;;;;;;7.20;99.90;;;;;;5057909;28;19948;-81
2021/12/14 05:26:34;;;;;;;;;;;7.40;99.90;;;;;;5057699;28;19929;-81
2021/12/14 05:29:03;;;;;;;;;;;7.90;99.90;;;;;;5067783;28;19924;-80
2021/12/14 05:31:30;;;;;;;;;;;7.50;99.90;;;;;;5069316;28;19935;-80
2021/12/14 05:33:56;;;;;;;;;;;7.20;99.90;;;;;;5068010;28;19925;-80
2021/12/14 05:36:24;;;;;;;;;;;7.40;99.90;;;;;;5062623;28;20351;-81
2021/12/14 05:38:57;;;;;;;;;;;7.70;99.90;;;;;;5059236;28;19975;-81
2021/12/14 05:44:11;;;;;;;;;;;8.20;99.90;;;;;;5057794;28;19927;-80
2021/12/14 05:46:38;;;;;;;;;;;7.50;99.90;;;;;;5062415;28;19924;-80
2021/12/14 05:49:06;;;;;;;;;;;7.40;99.90;;;;;;5063379;28;20399;-80
2021/12/14 05:51:33;;;;;;;;;;;6.10;99.90;;;;;;5064189;28;20000;-80
2021/12/14 05:54:01;;;;;;;;;;;6.40;99.90;;;;;;5064278;28;19928;-83
2021/12/14 05:56:29;;;;;;;;;;;7.40;99.90;;;;;;5058500;28;19928;-81
2021/12/14 05:58:56;;;;;;;;;;;7.50;99.90;;;;;;5057012;28;19924;-81
2021/12/14 06:01:25;;;;;;;;;;;6.60;99.90;;;;;;5056685;28;19971;-81
2021/12/14 06:03:53;;;;;;;;;;;7.40;99.90;;;;;;5056777;28;19957;-81
2021/12/14 06:06:21;;;;;;;;;;;7.50;99.90;;;;;;5057612;28;20280;-82
2021/12/14 06:08:48;;;;;;;;;;;7.10;99.90;;;;;;5057359;28;20012;-81
2021/12/14 06:11:21;;;;;;;;;;;7.50;99.90;;;;;;5056055;28;19929;-81
2021/12/14 06:13:47;;;;;;;;;;;7.50;99.90;;;;;;5056695;28;19979;-81
2021/12/14 06:16:22;;;;;;;;;;;7.40;99.90;;;;;;5056771;28;19932;-81
2021/12/14 06:18:50;;;;;;;;;;;7.50;99.90;;;;;;5057361;28;19925;-81
2021/12/14 06:21:18;;;;;;;;;;;7.40;99.90;;;;;;5058122;28;20027;-81
2021/12/14 06:23:45;;;;;;;;;;;7.50;99.90;;;;;;5059686;28;19929;-80
2021/12/14 06:26:13;;;;;;;;;;;7.50;99.90;;;;;;5063071;28;19987;-81
2021/12/14 06:28:39;;;;;;;;;;;7.70;99.90;;;;;;5065813;28;19932;-82
2021/12/14 06:31:06;;;;;;;;;;;6.40;99.90;;;;;;5069621;28;19924;-82
2021/12/14 06:33:33;;;;;;;;;;;6.40;99.90;;;;;;5067896;28;19925;-81
2021/12/14 06:36:02;;;;;;;;;;;7.40;99.90;;;;;;5065740;28;19992;-80
2021/12/14 06:38:29;;;;;;;;;;;7.70;99.90;;;;;;5067319;28;19935;-80
2021/12/14 06:41:00;;;;;;;;;;;7.40;99.90;;;;;;5068110;28;19935;-81
2021/12/14 06:43:28;;;;;;;;;;;7.60;99.90;;;;;;5065087;28;19944;-81
2021/12/14 06:45:56;;;;;;;;;;;7.40;99.90;;;;;;5066492;28;19947;-80
2021/12/14 06:48:24;;;;;;;;;;;6.70;99.90;;;;;;5066746;28;19932;-81
2021/12/14 06:50:52;;;;;;;;;;;6.60;99.90;;;;;;5072908;28;20310;-81
2021/12/14 06:53:20;;;;;;;;;;;6.90;99.90;;;;;;5077169;28;19936;-81
2021/12/14 06:55:52;;;;;;;;;;;7.30;99.90;;;;;;5071721;28;19931;-82
2021/12/14 06:58:20;;;;;;;;;;;7.40;99.90;;;;;;5059127;28;19978;-81
2021/12/14 07:00:48;;;;;;;;;;;6.70;99.90;;;;;;5062290;28;20402;-81
2021/12/14 07:03:14;;;;;;;;;;;7.40;99.90;;;;;;5059476;28;19924;-81
2021/12/14 07:05:43;;;;;;;;;;;7.40;99.90;;;;;;5057118;28;19985;-81
2021/12/14 07:08:14;;;;;;;;;;;6.20;99.90;;;;;;5056680;28;19972;-80
2021/12/14 07:10:44;;;;;;;;;;;7.40;99.90;;;;;;5056565;28;19925;-81
2021/12/14 07:13:12;;;;;;;;;;;7.60;99.90;;;;;;5060954;28;19925;-81
2021/12/14 07:15:39;;;;;;;;;;;7.00;99.90;;;;;;5056550;28;19928;-82
2021/12/14 07:18:07;;;;;;;;;;;7.30;99.90;;;;;;5057244;28;19968;-81
2021/12/14 07:20:35;;;;;;;;;;;7.40;99.90;;;;;;5059515;28;19925;-81
2021/12/14 07:23:03;;;;;;;;;;;6.40;99.90;;;;;;5055605;28;20320;-81
2021/12/14 07:25:31;;;;;;;;;;;7.40;99.90;;;;;;5056463;28;19951;-81
2021/12/14 07:28:00;;;;;;;;;;;7.40;99.90;;;;;;5059110;28;20434;-80
2021/12/14 07:30:31;;;;;;;;;;;7.40;99.90;;;;;;5062118;28;19975;-80
2021/12/14 07:33:00;;;;;;;;;;;7.20;99.90;;;;;;5059342;28;19925;-81
2021/12/14 07:35:29;;;;;;;;;;;8.20;99.90;;;;;;5057242;28;19925;-82
2021/12/14 07:37:58;;;;;;;;;;;6.50;99.90;;;;;;5056483;28;19928;-82
2021/12/14 07:40:25;;;;;;;;;;;6.50;99.90;;;;;;5056628;28;19963;-82
2021/12/14 07:43:06;;;;;;;;;;;6.20;99.90;;;;;;5057404;28;19924;-82
2021/12/14 07:45:34;;;;;;;;;;;6.60;99.90;;;;;;5057023;28;20399;-81
2021/12/14 07:48:01;;;;;;;;;;;7.40;99.90;;;;;;5056444;28;19976;-81
2021/12/14 07:50:38;;;;;;;;;;;7.40;99.90;;;;;;5057364;28;20441;-81
2021/12/14 07:53:05;;;;;;;;;;;7.40;99.90;;;;;;5061026;28;19951;-80
2021/12/14 07:55:37;;;;;;;;;;;7.50;99.90;;;;;;5061808;28;19931;-80
2021/12/14 07:58:05;;;;;;;;;;;7.50;99.90;;;;;;5066719;28;19925;-78
2021/12/14 08:00:35;;;;;;;;;;;6.80;99.90;;;;;;5057805;28;19932;-76
2021/12/14 08:03:03;;;;;;;;;;;7.50;99.90;;;;;;5057751;28;19924;-77
2021/12/14 08:05:31;;;;;;;;;;;8.40;99.90;;;;;;5057771;28;19971;-77
2021/12/14 08:07:59;;;;;;;;;;;7.80;99.90;;;;;;5057383;28;19968;-77
2021/12/14 08:10:26;;;;;;;;;;;7.50;99.90;;;;;;5057351;28;20399;-76
2021/12/14 08:12:55;;;;;;;;;;;7.60;99.90;;;;;;5062991;28;19948;-83
2021/12/14 08:15:24;;;;;;;;;;;7.70;99.90;;;;;;5059693;28;19925;-82
2021/12/14 08:18:08;;;;;;;;;;;6.90;99.90;;;;;;5059011;28;20404;-82
2021/12/14 08:20:35;;;;;;;;;;;7.50;99.90;;;;;;5060505;28;19925;-82
2021/12/14 08:23:11;;;;;;;;;;;7.50;99.90;;;;;;5058758;28;19928;-82
2021/12/14 08:25:40;;;;;;;;;;;6.60;99.90;;;;;;5063720;28;19925;-82
2021/12/14 08:28:09;;;;;;;;;;;6.80;99.90;;;;;;5069286;28;19925;-82
2021/12/14 08:30:36;;;;;;;;;;;7.60;99.90;;;;;;5068576;28;19940;-81
2021/12/14 08:33:16;;;;;;;;;;;7.60;99.90;;;;;;5071903;28;19974;-82
2021/12/14 08:35:43;;;;;;;;;;;7.70;99.90;;;;;;5066462;28;20416;-83
2021/12/14 08:38:09;;;;;;;;;;;7.60;99.90;;;;;;5081965;22;20348;-87
2021/12/14 08:40:38;;;;;;;;;;;8.00;99.90;;;;;;5067360;28;19929;-86
2021/12/14 08:43:12;;;;;;;;;;;7.10;99.90;;;;;;5066980;28;19947;-88
2021/12/14 08:45:40;;;;;;;;;;;7.60;99.90;;;;;;5067207;28;19925;-85
2021/12/14 08:48:10;;;;;;;;;;;7.90;99.90;;;;;;5065993;28;19925;-87
2021/12/14 08:50:38;;;;;;;;;;;8.10;99.90;;;;;;5066464;28;19951;-87
2021/12/14 08:53:05;;;;;;;;;;;7.70;99.90;;;;;;5078119;28;19908;-86
2021/12/14 08:55:36;;;;;;;;;;;7.70;99.90;;;;;;5079352;28;19935;-87
2021/12/14 08:58:03;;;;;;;;;;;6.80;99.90;;;;;;5081510;28;19908;-87
2021/12/14 09:00:32;;;;;;;;;;;7.70;99.90;;;;;;5081446;28;19909;-86
2021/12/14 09:03:00;;;;;;;;;;;7.70;99.90;;;;;;5080769;28;19962;-86
2021/12/14 09:05:33;;;;;;;;;;;7.70;99.90;;;;;;5070258;28;19971;-86
2021/12/14 09:08:00;;;;;;;;;;;7.80;99.90;;;;;;5073500;28;19952;-84
2021/12/14 09:10:28;;;;;;;;;;;7.70;99.90;;;;;;5079945;28;19909;-86
2021/12/14 09:12:57;;;;;;;;;;;7.50;99.90;;;;;;5076329;28;19955;-86
2021/12/14 09:15:24;;;;;;;;;;;;;;;;;;5070071;28;20011;-88
2021/12/14 09:17:51;;;;;;;;;;;7.70;99.90;;;;;;5065372;28;19979;-88
2021/12/14 09:20:19;;;;;;;;;;;7.70;99.90;;;;;;5064988;28;19932;-87
2021/12/14 09:22:50;;;;;;;;;;;7.70;99.90;;;;;;5066183;28;20296;-86
2021/12/14 09:25:18;;;;;;;;;;;;;;;;;;5065204;28;19925;-86
2021/12/14 09:27:45;;;;;;;;;;;7.80;99.90;;;;;;5064704;28;19984;-85
2021/12/14 09:30:15;;;;;;;;;;;7.80;99.90;;;;;;5070146;28;19928;-84
2021/12/14 09:32:42;;;;;;;;;;;7.80;99.90;;;;;;5066396;28;19951;-85
2021/12/14 09:35:13;;;;;;;;;;;7.90;99.90;;;;;;5063802;28;20016;-85
2021/12/14 09:37:40;;;;;;;;;;;7.80;99.90;;;;;;5064951;28;19975;-86
2021/12/14 09:40:10;;;;;;;;;;;7.80;99.90;;;;;;5070565;28;19974;-86
2021/12/14 09:42:38;;;;;;;;;;;7.70;99.90;;;;;;5069646;28;20416;-85
2021/12/14 09:45:06;;;;;;;;;;;7.60;99.90;;;;;;5072685;28;19925;-85
2021/12/14 09:47:33;;;;;;;;;;;8.20;99.90;;;;;;5077278;28;19939;-86
2021/12/14 09:50:02;;;;;;;;;;;7.80;99.90;;;;;;5077088;28;19928;-86
2021/12/14 09:52:30;;;;;;;;;;;7.60;99.90;;;;;;5078923;28;19929;-86
2021/12/14 09:54:56;;;;;;;;;;;7.90;99.90;;;;;;5080246;28;19945;-86
2021/12/14 09:57:28;;;;;;;;;;;7.90;99.90;;;;;;5074068;28;19925;-86
2021/12/14 09:59:55;;;;;;;;;;;7.40;99.90;;;;;;5067345;28;19951;-86
2021/12/14 10:02:23;;;;;;;;;;;7.60;99.90;;;;;;5071680;28;19940;-87
2021/12/14 10:04:52;;;;;;;;;;;7.90;99.90;;;;;;5068379;28;19925;-87
2021/12/14 10:07:18;;;;;;;;;;;7.90;99.90;;;;;;5066297;28;20288;-87
2021/12/14 10:09:47;;;;;;;;;;;7.30;99.90;;;;;;5064863;28;19925;-87
2021/12/14 10:12:49;;;;;;;;;;;7.80;99.90;;;;;;5064298;28;19935;-85
2021/12/14 10:15:19;;;;;;;;;;;7.90;99.90;;;;;;5064542;28;19943;-86
2021/12/14 10:17:46;;;;;;;;;;;7.90;99.90;;;;;;5064087;28;19925;-86
2021/12/14 10:20:14;;;;;;;;;;;8.90;99.90;;;;;;5063654;28;19928;-85
2021/12/14 10:22:40;;;;;;;;;;;7.60;99.90;;;;;;5064918;28;19925;-88
2021/12/14 10:25:09;;;;;;;;;;;7.90;99.90;;;;;;5065866;28;19932;-86
2021/12/14 10:27:36;;;;;;;;;;;7.80;99.90;;;;;;5063659;28;19925;-85
2021/12/14 10:30:05;;;;;;;;;;;7.50;99.90;;;;;;5064741;28;19935;-87
2021/12/14 10:32:34;;;;;;;;;;;8.20;99.90;;;;;;5064830;28;19943;-86
2021/12/14 10:35:14;;;;;;;;;;;7.60;99.90;;;;;;5110074;28;19971;-86
2021/12/14 10:37:54;;;;;;;;;;;8.00;99.90;;;;;;5116491;28;19936;-86
2021/12/14 10:43:12;;;;;;;;;;;8.00;99.90;;;;;;5116797;28;19920;-85
2021/12/14 10:45:41;;;;;;;;;;;8.00;99.90;;;;;;5114378;28;19924;-85
2021/12/14 10:48:07;;;;;;;;;;;8.00;99.90;;;;;;5140910;22;19974;-83
2021/12/14 10:50:36;;;;;;;;;;;7.60;99.90;;;;;;5083266;28;19925;-82
2021/12/14 10:53:04;;;;;;;;;;;8.00;99.90;;;;;;5081393;28;20011;-82
2021/12/14 10:55:34;;;;;;;;;;;7.90;99.90;;;;;;5082443;28;19931;-83
2021/12/14 10:58:01;;;;;;;;;;;7.90;99.90;;;;;;5082123;28;19967;-82
2021/12/14 11:00:31;;;;;;;;;;;8.10;99.90;;;;;;5082710;28;19925;-82
2021/12/14 11:03:02;;;;;;;;;;;7.70;99.90;;;;;;5083243;28;20276;-81
2021/12/14 11:05:29;;;;;;;;;;;7.90;99.90;;;;;;5081544;28;19968;-81
2021/12/14 11:07:57;;;;;;;;;;;8.30;99.90;;;;;;5081975;28;19951;-82
2021/12/14 11:10:26;;;;;;;;;;;8.30;99.90;;;;;;5083326;28;20002;-83
2021/12/14 11:12:54;;;;;;;;;;;8.30;99.90;;;;;;5082149;28;20023;-83
2021/12/14 11:15:22;;;;;;;;;;;8.20;99.90;;;;;;5082718;28;20292;-83
2021/12/14 11:18:09;;;;;;;;;;;8.40;99.90;;;;;;5081780;28;19947;-82
2021/12/14 11:20:37;;;;;;;;;;;8.50;99.90;;;;;;5081893;28;19978;-80
2021/12/14 11:23:08;;;;;;;;;;;8.20;99.90;;;;;;5081677;28;19928;-81
2021/12/14 11:25:36;;;;;;;;;;;8.50;99.90;;;;;;5082183;28;19964;-81
2021/12/14 11:28:05;;;;;;;;;;;8.40;99.90;;;;;;5085213;28;19913;-79
2021/12/14 11:30:33;;;;;;;;;;;8.40;99.90;;;;;;5093387;28;19978;-81
2021/12/14 11:33:04;;;;;;;;;;;8.50;99.90;;;;;;5094100;28;19913;-80
2021/12/14 11:35:31;;;;;;;;;;;8.40;99.90;;;;;;5090557;28;19925;-78
2021/12/14 11:37:59;;;;;;;;;;;8.40;99.90;;;;;;5089279;28;19951;-78
2021/12/14 11:40:29;;;;;;;;;;;8.50;99.90;;;;;;5087322;28;19928;-79
2021/12/14 11:43:09;;;;;;;;;;;8.40;99.90;;;;;;5089077;28;19924;-82
2021/12/14 11:45:36;;;;;;;;;;;8.50;99.90;;;;;;5079240;28;20018;-82
2021/12/14 11:48:03;;;;;;;;;;;8.60;99.90;;;;;;5074218;28;19936;-82
2021/12/14 11:50:34;;;;;;;;;;;8.60;99.90;;;;;;5072820;28;19925;-83
2021/12/14 11:53:02;;;;;;;;;;;8.70;99.90;;;;;;5072961;28;19928;-83
2021/12/14 11:55:33;;;;;;;;;;;8.70;99.90;;;;;;5070896;28;19925;-82
2021/12/14 11:58:05;;;;;;;;;;;8.60;99.90;;;;;;5070288;28;19936;-82
2021/12/14 12:00:32;;;;;;;;;;;8.60;99.90;;;;;;5071563;28;19924;-83
2021/12/14 12:03:17;;;;;;;;;;;8.80;99.90;;;;;;5069299;28;19947;-83
2021/12/14 12:05:58;;;;;;;;;;;7.70;99.90;;;;;;5070761;28;19947;-82
2021/12/14 12:11:11;;;;;;;;;;;8.80;99.90;;;;;;5070203;28;19934;-83
2021/12/14 12:13:39;;;;;;;;;;;8.80;99.90;;;;;;5069680;28;19933;-82
2021/12/14 12:16:11;;;;;;;;;;;8.20;99.90;;;;;;5069650;28;19925;-81
2021/12/14 12:18:37;;;;;;;;;;;9.00;99.90;;;;;;5072868;28;19940;-83
2021/12/14 12:21:04;;;;;;;;;;;8.80;99.90;;;;;;5071194;28;19932;-83
2021/12/14 12:23:33;;;;;;;;;;;9.00;99.90;;;;;;5071511;28;20244;-83
2021/12/14 12:26:07;;;;;;;;;;;8.90;99.90;;;;;;5070811;28;19952;-81
2021/12/14 12:28:38;;;;;;;;;;;9.00;99.90;;;;;;5071535;28;19924;-82
2021/12/14 12:31:08;;;;;;;;;;;8.00;99.90;;;;;;5070970;28;19931;-81
2021/12/14 12:33:36;;;;;;;;;;;8.90;99.90;;;;;;5070019;28;19932;-81
2021/12/14 12:36:06;;;;;;;;;;;8.90;99.90;;;;;;5070338;28;19925;-81
2021/12/14 12:38:36;;;;;;;;;;;8.10;99.90;;;;;;5072231;28;19980;-81
2021/12/14 12:41:06;;;;;;;;;;;8.90;99.90;;;;;;5071386;28;19925;-83
2021/12/14 12:43:34;;;;;;;;;;;8.50;99.90;;;;;;5075119;28;19925;-81
2021/12/14 12:46:04;;;;;;;;;;;8.80;99.90;;;;;;5079419;28;19963;-81
2021/12/14 12:48:52;;;;;;;;;;;8.30;99.90;;;;;;5079126;28;19913;-82
2021/12/14 12:51:48;;;;;;;;;;;8.90;99.90;;;;;;5071332;28;20016;-82
2021/12/14 12:54:18;;;;;;;;;;;8.80;99.90;;;;;;4972239;29;19927;-82
2021/12/14 12:56:46;;;;;;;;;;;8.30;99.90;;;;;;5050314;28;19933;-82
2021/12/14 12:59:15;;;;;;;;;;;8.90;99.90;;;;;;5071599;28;19947;-82
2021/12/14 13:01:43;;;;;;;;;;;9.20;99.90;;;;;;5071288;28;19925;-83
2021/12/14 13:04:10;;;;;;;;;;;8.50;99.90;;;;;;5071594;28;19958;-82
2021/12/14 13:06:36;;;;;;;;;;;8.90;99.90;;;;;;5068992;28;19925;-82
2021/12/14 13:09:03;;;;;;;;;;;9.40;99.90;;;;;;5068156;28;20379;-83
2021/12/14 13:11:31;;;;;;;;;;;8.10;99.90;;;;;;5068391;28;19924;-81
2021/12/14 13:14:01;;;;;;;;;;;8.80;99.90;;;;;;5071526;28;19948;-82
2021/12/14 13:16:29;;;;;;;;;;;8.70;99.90;;;;;;5071165;28;19928;-83
2021/12/14 13:18:58;;;;;;;;;;;8.70;99.90;;;;;;5070452;28;19925;-83
2021/12/14 13:21:42;;;;;;;;;;;8.70;99.90;;;;;;5071768;28;19936;-83
2021/12/14 13:24:11;;;;;;;;;;;8.70;99.90;;;;;;5071491;28;19924;-82
2021/12/14 13:26:42;;;;;;;;;;;8.20;99.90;;;;;;5076359;28;19925;-82
2021/12/14 13:29:30;;;;;;;;;;;9.20;99.90;;;;;;5075522;28;19913;-83
2021/12/14 13:31:59;;;;;;;;;;;8.90;99.90;;;;;;5062005;28;19929;-82
2021/12/14 13:34:28;;;;;;;;;;;8.70;99.90;;;;;;5070403;28;19974;-82
2021/12/14 13:36:58;;;;;;;;;;;8.70;99.90;;;;;;5070457;28;19975;-82
2021/12/14 13:39:25;;;;;;;;;;;8.70;99.90;;;;;;5069638;28;19925;-83
2021/12/14 13:42:10;;;;;;;;;;;8.70;99.90;;;;;;5070918;28;19925;-82
2021/12/14 13:44:38;;;;;;;;;;;8.90;99.90;;;;;;5070528;28;19925;-82
2021/12/14 13:47:06;;;;;;;;;;;8.80;99.90;;;;;;5070088;28;19925;-81
2021/12/14 13:49:34;;;;;;;;;;;8.50;99.90;;;;;;5070498;28;19948;-81
2021/12/14 13:52:01;;;;;;;;;;;8.50;99.90;;;;;;5070565;28;20271;-82
2021/12/14 13:54:28;;;;;;;;;;;8.40;99.90;;;;;;5069876;28;19928;-81
2021/12/14 13:56:54;;;;;;;;;;;8.30;99.90;;;;;;5070310;28;20371;-82
2021/12/14 13:59:21;;;;;;;;;;;8.00;99.90;;;;;;5070351;28;19947;-82
2021/12/14 14:01:49;;;;;;;;;;;8.00;99.90;;;;;;5070162;28;19970;-82
2021/12/14 14:04:17;;;;;;;;;;;7.90;99.90;;;;;;5069291;28;19974;-82
2021/12/14 14:06:45;;;;;;;;;;;7.80;99.90;;;;;;5068997;28;19935;-82
2021/12/14 14:09:14;;;;;;;;;;;7.80;99.90;;;;;;5070382;28;19951;-82
2021/12/14 14:11:42;;;;;;;;;;;7.70;99.90;;;;;;5072097;28;19951;-83
2021/12/14 14:14:09;;;;;;;;;;;7.50;99.90;;;;;;5073608;28;19929;-82
2021/12/14 14:16:36;;;;;;;;;;;7.70;99.90;;;;;;5072424;28;19924;-82
2021/12/14 14:19:06;;;;;;;;;;;7.50;99.90;;;;;;5073687;28;19932;-82
2021/12/14 14:21:33;;;;;;;;;;;7.50;99.90;;;;;;5074252;28;19913;-80
2021/12/14 14:24:01;;;;;;;;;;;7.60;99.90;;;;;;5073714;28;19909;-81
2021/12/14 14:26:36;;;;;;;;;;;7.50;99.90;;;;;;5073034;28;19928;-81
2021/12/14 14:29:04;;;;;;;;;;;7.80;99.90;;;;;;5071108;28;19951;-82
2021/12/14 14:31:44;;;;;;;;;;;7.60;99.90;;;;;;5076546;28;19951;-82
2021/12/14 14:34:17;;;;;;;;;;;8.10;99.90;;;;;;5072587;28;19999;-81
2021/12/14 14:36:45;;;;;;;;;;;7.60;99.90;;;;;;5075428;28;19925;-81
2021/12/14 14:39:14;;;;;;;;;;;7.50;99.90;;;;;;5076561;28;19936;-82
2021/12/14 14:41:46;;;;;;;;;;;7.40;99.90;;;;;;5075650;28;19951;-81
2021/12/14 14:44:14;;;;;;;;;;;7.50;99.90;;;;;;5075939;28;19932;-82
2021/12/14 14:46:52;;;;;;;;;;;6.80;99.90;;;;;;5075381;28;19925;-81
2021/12/14 14:49:20;;;;;;;;;;;7.80;99.90;;;;;;5076793;28;19920;-80
2021/12/14 14:51:47;;;;;;;;;;;7.50;99.90;;;;;;5076350;28;19931;-81
2021/12/14 14:54:35;;;;;;;;;;;7.60;99.90;;;;;;5075754;28;19913;-81
2021/12/14 14:57:28;;;;;;;;;;;8.10;99.90;;;;;;5067493;28;19925;-82
2021/12/14 15:00:13;;;;;;;;;;;7.50;99.90;;;;;;5076548;28;19925;-82
2021/12/14 15:02:50;;;;;;;;;;;7.50;99.90;;;;;;5077045;28;19932;-80
2021/12/14 15:05:18;;;;;;;;;;;7.80;99.90;;;;;;5075435;28;19935;-82